createdAt,value
2023-05-10T17:09:42.380Z,19.63
2023-05-10T17:12:08.664Z,19.92
2023-05-10T17:13:10.548Z,19.93
2023-05-10T17:14:09.665Z,19.90
2023-05-10T17:15:09.689Z,19.81
2023-05-10T17:16:09.697Z,19.74
2023-05-10T17:17:09.637Z,19.64
2023-05-10T17:18:09.704Z,19.54
2023-05-10T17:19:09.758Z,19.44
2023-05-10T17:20:09.592Z,19.31
2023-05-10T17:21:09.599Z,19.23
2023-05-10T17:22:09.565Z,19.13
2023-05-10T17:23:09.553Z,19.01
2023-05-10T17:24:09.546Z,18.91
2023-05-10T17:25:09.526Z,18.78
2023-05-10T17:26:09.556Z,18.70
2023-05-10T17:27:09.502Z,18.60
2023-05-10T17:28:09.548Z,18.54
2023-05-10T17:29:09.480Z,18.46
2023-05-10T17:30:09.484Z,18.39
2023-05-10T17:31:09.491Z,18.34
2023-05-10T17:32:09.471Z,18.30
2023-05-10T17:33:09.457Z,18.27
2023-05-10T17:34:09.464Z,18.24
2023-05-10T17:35:09.412Z,18.24
2023-05-10T17:36:09.408Z,18.20
2023-05-10T17:37:09.428Z,18.20
2023-05-10T17:38:09.376Z,18.15
2023-05-10T17:39:09.358Z,18.12
2023-05-10T17:40:09.381Z,18.08
2023-05-10T17:41:09.347Z,18.06
2023-05-10T17:42:09.376Z,18.03
2023-05-10T17:43:09.344Z,18.01
2023-05-10T17:44:09.327Z,18.01
2023-05-10T17:45:09.309Z,17.97
2023-05-10T17:46:09.320Z,17.96
2023-05-10T17:47:09.308Z,17.94
2023-05-10T17:48:09.309Z,17.91
2023-05-10T17:49:09.267Z,17.87
2023-05-10T17:50:09.252Z,17.86
2023-05-10T17:51:09.230Z,17.84
2023-05-10T17:52:09.272Z,17.83
2023-05-10T17:53:09.207Z,17.79
2023-05-10T17:54:09.190Z,17.79
2023-05-10T17:55:09.186Z,17.76
2023-05-10T17:56:09.172Z,17.72
2023-05-10T17:57:09.171Z,17.69
2023-05-10T17:58:09.180Z,17.66
2023-05-10T17:59:09.137Z,17.59
2023-05-10T18:00:09.146Z,17.52
2023-05-10T18:01:09.113Z,17.49
2023-05-10T18:02:09.090Z,17.47
2023-05-10T18:03:09.217Z,17.41
2023-05-10T18:04:09.120Z,17.38
2023-05-10T18:05:09.099Z,17.35
2023-05-10T18:06:09.154Z,17.31
2023-05-10T18:07:09.075Z,17.27
2023-05-10T18:08:09.050Z,17.24
2023-05-10T18:09:09.039Z,17.20
2023-05-10T18:10:09.026Z,17.12
2023-05-10T18:11:08.997Z,17.06
2023-05-10T18:12:08.994Z,17.01
2023-05-10T18:13:09.091Z,16.95
2023-05-10T18:14:08.985Z,16.94
2023-05-10T18:15:08.961Z,16.90
2023-05-10T18:16:08.943Z,16.88
2023-05-10T18:17:09.022Z,16.88
2023-05-10T18:18:09.013Z,16.83
2023-05-10T18:19:08.967Z,16.77
2023-05-10T18:20:08.881Z,16.73
2023-05-10T18:21:08.895Z,16.69
2023-05-10T18:22:10.675Z,16.64
2023-05-10T18:23:08.887Z,16.59
2023-05-10T18:24:09.030Z,16.55
2023-05-10T18:25:08.860Z,16.51
2023-05-10T18:26:08.974Z,16.47
2023-05-10T18:27:08.909Z,16.46
2023-05-10T18:28:08.796Z,16.43
2023-05-10T18:29:08.830Z,16.42
2023-05-10T18:30:08.797Z,16.39
2023-05-10T18:31:08.829Z,16.37
2023-05-10T18:32:08.758Z,16.36
2023-05-10T18:33:08.809Z,16.32
2023-05-10T18:34:08.773Z,16.28
2023-05-10T18:35:08.733Z,16.24
2023-05-10T18:36:08.713Z,16.22
2023-05-10T18:37:08.706Z,16.21
2023-05-10T18:38:08.693Z,16.22
2023-05-10T18:39:08.723Z,16.21
2023-05-10T18:40:08.715Z,16.21
2023-05-10T18:41:08.683Z,16.22
2023-05-10T18:42:08.637Z,16.22
2023-05-10T18:43:08.641Z,16.22
2023-05-10T18:44:08.604Z,16.16
2023-05-10T18:45:08.634Z,16.14
2023-05-10T18:46:08.618Z,16.09
2023-05-10T18:47:08.591Z,16.05
2023-05-10T18:48:08.672Z,15.99
2023-05-10T18:49:08.592Z,15.93
2023-05-10T18:50:08.602Z,15.91
2023-05-10T18:51:08.545Z,15.88
2023-05-10T18:52:08.554Z,15.84
2023-05-10T18:53:08.547Z,15.83
2023-05-10T18:54:08.550Z,15.78
2023-05-10T18:55:08.511Z,15.73
2023-05-10T18:56:08.527Z,15.69
2023-05-10T18:57:08.479Z,15.69
2023-05-10T18:58:08.476Z,15.72
2023-05-10T18:59:08.469Z,15.68
2023-05-10T19:00:08.434Z,15.69
2023-05-10T19:01:28.091Z,15.70
2023-05-10T19:02:28.811Z,15.65
2023-05-10T19:03:28.777Z,15.58
2023-05-10T19:04:28.779Z,15.58
2023-05-10T19:05:28.742Z,15.58
2023-05-10T19:06:28.761Z,15.59
2023-05-10T19:07:28.715Z,15.56
2023-05-10T19:08:28.747Z,15.56
2023-05-10T19:09:28.729Z,15.58
2023-05-10T19:10:28.671Z,15.58
2023-05-10T19:11:28.674Z,15.58
2023-05-10T19:12:28.694Z,15.58
2023-05-10T19:13:28.644Z,15.56
2023-05-10T19:14:28.619Z,15.54
2023-05-10T19:15:28.632Z,15.52
2023-05-10T19:16:28.947Z,15.51
2023-05-10T19:17:29.365Z,15.48
2023-05-10T19:18:28.618Z,15.50
2023-05-10T19:19:28.568Z,15.52
2023-05-10T19:20:28.555Z,15.50
2023-05-10T19:21:28.566Z,15.43
2023-05-10T19:22:44.877Z,15.40
2023-05-10T19:23:32.878Z,15.38
2023-05-10T19:24:28.509Z,15.32
2023-05-10T19:25:28.516Z,15.26
2023-05-10T19:26:28.500Z,15.25
2023-05-10T19:27:28.513Z,15.25
2023-05-10T19:28:28.512Z,15.22
2023-05-10T19:29:29.345Z,15.19
2023-05-10T19:30:28.446Z,15.14
2023-05-10T19:31:28.439Z,15.11
2023-05-10T19:32:28.471Z,15.11
2023-05-10T19:33:28.420Z,15.11
2023-05-10T19:34:28.904Z,15.11
2023-05-10T19:35:28.368Z,15.08
2023-05-10T19:36:28.433Z,15.08
2023-05-10T19:37:28.868Z,15.08
2023-05-10T19:38:28.373Z,15.04
2023-05-10T19:39:28.703Z,14.99
2023-05-10T19:40:28.366Z,14.93
2023-05-10T19:41:28.316Z,14.93
2023-05-10T19:42:28.337Z,14.89
2023-05-10T19:43:28.361Z,14.83
2023-05-10T19:44:28.569Z,14.83
2023-05-10T19:45:28.313Z,14.77
2023-05-10T19:46:28.359Z,14.70
2023-05-10T19:47:28.295Z,14.70
2023-05-10T19:48:28.268Z,14.70
2023-05-10T19:49:28.285Z,14.67
2023-05-10T19:50:28.304Z,14.64
2023-05-10T19:51:28.222Z,14.59
2023-05-10T19:52:28.195Z,14.56
2023-05-10T19:53:30.084Z,14.58
2023-05-10T19:54:55.680Z,14.58
2023-05-10T19:56:01.112Z,14.59
2023-05-10T19:59:06.660Z,14.58
2023-05-10T19:59:31.556Z,14.56
2023-05-10T20:01:26.324Z,14.61
2023-05-10T20:02:27.346Z,14.53
2023-05-10T20:04:54.529Z,14.55
2023-05-10T20:05:55.557Z,14.48
2023-05-10T20:06:55.497Z,14.48
2023-05-10T20:07:55.519Z,14.44
2023-05-10T20:08:55.494Z,14.38
2023-05-10T20:09:55.470Z,14.38
2023-05-10T20:10:55.510Z,14.36
2023-05-10T20:11:55.455Z,14.34
2023-05-10T20:12:55.464Z,14.34
2023-05-10T20:13:55.432Z,14.34
2023-05-10T20:14:55.451Z,14.36
2023-05-10T20:15:55.398Z,14.36
2023-05-10T20:16:55.530Z,14.34
2023-05-10T20:17:55.439Z,14.27
2023-05-10T20:18:55.466Z,14.22
2023-05-10T20:19:55.361Z,14.21
2023-05-10T20:20:55.386Z,14.18
2023-05-10T20:21:55.388Z,14.18
2023-05-10T20:22:55.371Z,14.19
2023-05-10T20:23:55.306Z,14.22
2023-05-10T20:24:56.202Z,14.22
2023-05-10T20:25:55.322Z,14.23
2023-05-10T20:26:55.297Z,14.21
2023-05-10T20:27:55.321Z,14.19
2023-05-10T20:28:55.288Z,14.22
2023-05-10T20:29:55.235Z,14.26
2023-05-10T20:30:55.242Z,14.26
2023-05-10T20:31:55.259Z,14.28
2023-05-10T20:32:55.320Z,14.27
2023-05-10T20:33:55.234Z,14.27
2023-05-10T20:34:55.191Z,14.28
2023-05-10T20:35:55.191Z,14.26
2023-05-10T20:36:55.198Z,14.22
2023-05-10T20:37:55.166Z,14.23
2023-05-10T20:38:55.191Z,14.22
2023-05-10T20:39:55.149Z,14.18
2023-05-10T20:40:55.145Z,14.12
2023-05-10T20:41:55.104Z,14.13
2023-05-10T20:42:55.145Z,14.12
2023-05-10T20:43:55.164Z,14.08
2023-05-10T20:44:55.100Z,14.01
2023-05-10T20:45:55.108Z,13.98
2023-05-10T20:46:55.056Z,13.97
2023-05-10T20:47:55.208Z,13.91
2023-05-10T20:48:55.055Z,13.88
2023-05-10T20:49:55.070Z,13.79
2023-05-10T20:50:55.035Z,13.73
2023-05-10T20:51:55.010Z,13.71
2023-05-10T20:52:55.025Z,13.68
2023-05-10T20:53:54.972Z,13.65
2023-05-10T20:54:54.972Z,13.65
2023-05-10T20:55:54.972Z,13.65
2023-05-10T20:56:54.998Z,13.68
2023-05-10T20:57:54.965Z,13.68
2023-05-10T20:58:54.937Z,13.67
2023-05-10T20:59:54.914Z,13.71
2023-05-10T21:00:54.916Z,13.72
2023-05-10T21:01:54.917Z,13.76
2023-05-10T21:02:54.838Z,13.76
2023-05-10T21:03:54.864Z,13.75
2023-05-10T21:04:57.100Z,13.76
2023-05-10T21:05:54.881Z,13.78
2023-05-10T21:06:54.855Z,13.76
2023-05-10T21:07:54.825Z,13.73
2023-05-10T21:08:54.824Z,13.68
2023-05-10T21:09:54.816Z,13.68
2023-05-10T21:10:54.835Z,13.72
2023-05-10T21:11:54.776Z,13.73
2023-05-10T21:12:54.761Z,13.73
2023-05-10T21:13:54.774Z,13.73
2023-05-10T21:14:54.789Z,13.75
2023-05-10T21:15:54.831Z,13.75
2023-05-10T21:16:54.773Z,13.76
2023-05-10T21:17:54.728Z,13.79
2023-05-10T21:18:54.748Z,13.79
2023-05-10T21:19:54.696Z,13.82
2023-05-10T21:20:54.767Z,13.80
2023-05-10T21:21:54.656Z,13.79
2023-05-10T21:22:54.678Z,13.78
2023-05-10T21:23:54.663Z,13.76
2023-05-10T21:24:54.646Z,13.72
2023-05-10T21:25:54.617Z,13.71
2023-05-10T21:26:54.620Z,13.67
2023-05-10T21:27:54.592Z,13.64
2023-05-10T21:28:54.636Z,13.68
2023-05-10T21:29:54.592Z,13.67
2023-05-10T21:30:54.584Z,13.67
2023-05-10T21:31:54.601Z,13.64
2023-05-10T21:32:54.607Z,13.63
2023-05-10T21:33:54.560Z,13.64
2023-05-10T21:34:54.621Z,13.65
2023-05-10T21:35:54.527Z,13.65
2023-05-10T21:36:54.545Z,13.68
2023-05-10T21:37:54.539Z,13.71
2023-05-10T21:38:54.460Z,13.64
2023-05-10T21:39:54.512Z,13.64
2023-05-10T21:40:54.447Z,13.60
2023-05-10T21:41:54.444Z,13.55
2023-05-10T21:42:54.429Z,13.54
2023-05-10T21:43:54.420Z,13.53
2023-05-10T21:44:54.421Z,13.49
2023-05-10T21:45:54.498Z,13.47
2023-05-10T21:46:54.402Z,13.49
2023-05-10T21:47:54.416Z,13.49
2023-05-10T21:48:54.381Z,13.47
2023-05-10T21:49:54.356Z,13.49
2023-05-10T21:50:54.324Z,13.51
2023-05-10T21:51:54.385Z,13.51
2023-05-10T21:52:54.301Z,13.53
2023-05-10T21:53:54.302Z,13.53
2023-05-10T21:54:54.300Z,13.47
2023-05-10T21:55:54.305Z,13.43
2023-05-10T21:56:54.322Z,13.43
2023-05-10T21:57:54.252Z,13.47
2023-05-10T21:58:54.259Z,13.49
2023-05-10T21:59:54.274Z,13.46
2023-05-10T22:00:54.254Z,13.47
2023-05-10T22:01:54.214Z,13.51
2023-05-10T22:02:54.330Z,13.46
2023-05-10T22:03:54.197Z,13.40
2023-05-10T22:04:54.170Z,13.32
2023-05-10T22:05:54.139Z,13.27
2023-05-10T22:06:54.148Z,13.24
2023-05-10T22:07:54.157Z,13.20
2023-05-10T22:08:54.174Z,13.19
2023-05-10T22:09:54.116Z,13.20
2023-05-10T22:10:54.122Z,13.23
2023-05-10T22:11:54.117Z,13.23
2023-05-10T22:12:54.122Z,13.24
2023-05-10T22:13:54.113Z,13.24
2023-05-10T22:15:09.145Z,13.24
2023-05-10T22:15:54.084Z,13.24
2023-05-10T22:16:54.070Z,13.27
2023-05-10T22:17:54.102Z,13.30
2023-05-10T22:18:54.069Z,13.32
2023-05-10T22:19:54.037Z,13.27
2023-05-10T22:20:54.024Z,13.26
2023-05-10T22:21:53.996Z,13.26
2023-05-10T22:22:53.969Z,13.29
2023-05-10T22:23:53.963Z,13.32
2023-05-10T22:24:54.002Z,13.32
2023-05-10T22:25:53.976Z,13.36
2023-05-10T22:26:53.923Z,13.36
2023-05-10T22:27:53.914Z,13.30
2023-05-10T22:28:53.911Z,13.26
2023-05-10T22:29:53.914Z,13.23
2023-05-10T22:30:53.960Z,13.19
2023-05-10T22:31:53.878Z,13.19
2023-05-10T22:32:53.886Z,13.14
2023-05-10T22:33:53.840Z,13.08
2023-05-10T22:34:53.837Z,13.04
2023-05-10T22:35:53.832Z,13.04
2023-05-10T22:36:53.852Z,13.02
2023-05-10T22:37:53.805Z,13.02
2023-05-10T22:38:53.793Z,13.02
2023-05-10T22:39:53.800Z,13.02
2023-05-10T22:40:53.779Z,13.06
2023-05-10T22:41:53.749Z,13.09
2023-05-10T22:42:53.771Z,13.06
2023-05-10T22:43:53.744Z,13.02
2023-05-10T22:44:53.711Z,13.01
2023-05-10T22:45:53.708Z,13.01
2023-05-10T22:46:53.755Z,12.99
2023-05-10T22:47:53.770Z,12.96
2023-05-10T22:48:53.699Z,12.90
2023-05-10T22:49:53.658Z,12.86
2023-05-10T22:50:53.649Z,12.86
2023-05-10T22:51:53.682Z,12.86
2023-05-10T22:52:53.652Z,12.87
2023-05-10T22:53:53.654Z,12.90
2023-05-10T22:54:53.604Z,12.93
2023-05-10T22:55:53.595Z,12.90
2023-05-10T22:56:53.588Z,12.91
2023-05-10T22:57:53.553Z,12.90
2023-05-10T22:58:53.566Z,12.84
2023-05-10T22:59:53.581Z,12.81
2023-05-10T23:00:53.543Z,12.79
2023-05-10T23:01:53.589Z,12.72
2023-05-10T23:02:53.539Z,12.71
2023-05-10T23:03:53.513Z,12.68
2023-05-10T23:04:53.578Z,12.65
2023-05-10T23:05:53.507Z,12.62
2023-05-10T23:06:53.464Z,12.63
2023-05-10T23:07:53.475Z,12.63
2023-05-10T23:08:53.442Z,12.65
2023-05-10T23:09:53.458Z,12.59
2023-05-10T23:10:53.489Z,12.63
2023-05-10T23:11:53.415Z,12.61
2023-05-10T23:12:53.386Z,12.61
2023-05-10T23:13:53.381Z,12.63
2023-05-10T23:14:53.364Z,12.63
2023-05-10T23:15:53.417Z,12.61
2023-05-10T23:16:53.371Z,12.54
2023-05-10T23:17:53.396Z,12.55
2023-05-10T23:18:53.397Z,12.59
2023-05-10T23:19:53.305Z,12.62
2023-05-10T23:20:53.305Z,12.62
2023-05-10T23:21:53.316Z,12.61
2023-05-10T23:22:53.348Z,12.58
2023-05-10T23:23:53.305Z,12.54
2023-05-10T23:24:53.238Z,12.53
2023-05-10T23:25:53.261Z,12.53
2023-05-10T23:26:53.529Z,12.53
2023-05-10T23:27:53.701Z,12.51
2023-05-10T23:28:53.515Z,12.48
2023-05-10T23:29:53.622Z,12.50
2023-05-10T23:30:53.196Z,12.48
2023-05-10T23:31:53.198Z,12.47
2023-05-10T23:32:53.192Z,12.44
2023-05-10T23:33:53.149Z,12.44
2023-05-10T23:34:53.194Z,12.41
2023-05-10T23:35:53.123Z,12.38
2023-05-10T23:36:53.104Z,12.33
2023-05-10T23:37:53.116Z,12.28
2023-05-10T23:38:53.087Z,12.22
2023-05-10T23:39:53.149Z,12.22
2023-05-10T23:40:53.071Z,12.22
2023-05-10T23:41:53.071Z,12.18
2023-05-10T23:42:53.050Z,12.23
2023-05-10T23:43:53.040Z,12.23
2023-05-10T23:44:53.029Z,12.28
2023-05-10T23:45:53.104Z,12.28
2023-05-10T23:46:52.995Z,12.29
2023-05-10T23:47:53.062Z,12.30
2023-05-10T23:48:52.975Z,12.32
2023-05-10T23:49:53.002Z,12.35
2023-05-10T23:50:52.973Z,12.36
2023-05-10T23:51:52.950Z,12.38
2023-05-10T23:52:52.925Z,12.44
2023-05-10T23:53:52.921Z,12.46
2023-05-10T23:54:52.904Z,12.46
2023-05-10T23:55:52.928Z,12.47
2023-05-10T23:56:52.884Z,12.47
2023-05-10T23:57:52.876Z,12.48
2023-05-10T23:58:52.860Z,12.50
2023-05-10T23:59:52.851Z,12.53
